FJL735 OPLA-OPIS
Flight info
| Callsign | FJL735 |
|---|---|
| Flight time | 0h 30m |
| Altitude | 28000 |
| Route | AKBER1E AKBER J121 INDEK INDEK1A |
| Aircraft | A320/M-SDE3FGHIRWY/LB1 |
Departure
| Time | 2026-05-08 12:34 |
|---|---|
| Airport | Allama Iqbal International Airport (OPLA) |
Arrival
| Time | 2026-05-08 13:04 |
|---|---|
| Airport | Islamabad International Airport (OPIS) |
| Time | Latitude | Longitude | Altitude | Speed | Heading |
|---|---|---|---|---|---|
| 2026-05-08 12:17 | 31.52225 | 74.40948 | 723 ft | 0 kts | 145° |
| 2026-05-08 12:28 | 31.52233 | 74.40942 | 723 ft | 4 kts | 139° |
| 2026-05-08 12:28 | 31.52249 | 74.40919 | 723 ft | 4 kts | 109° |
| 2026-05-08 12:28 | 31.52253 | 74.40889 | 722 ft | 4 kts | 80° |
| 2026-05-08 12:29 | 31.52244 | 74.40860 | 721 ft | 4 kts | 51° |
| 2026-05-08 12:29 | 31.52227 | 74.40845 | 721 ft | 2 kts | 1° |
| 2026-05-08 12:29 | 31.52225 | 74.40845 | 721 ft | 0 kts | 0° |
| 2026-05-08 12:30 | 31.52228 | 74.40845 | 721 ft | 2 kts | 0° |
| 2026-05-08 12:31 | 31.52274 | 74.40845 | 724 ft | 9 kts | 0° |
| 2026-05-08 12:31 | 31.52329 | 74.40846 | 723 ft | 7 kts | 0° |
| 2026-05-08 12:31 | 31.52374 | 74.40840 | 724 ft | 6 kts | 338° |
| 2026-05-08 12:31 | 31.52396 | 74.40812 | 722 ft | 4 kts | 295° |
| 2026-05-08 12:32 | 31.52403 | 74.40784 | 722 ft | 3 kts | 281° |
| 2026-05-08 12:32 | 31.52405 | 74.40756 | 722 ft | 8 kts | 273° |
| 2026-05-08 12:32 | 31.52463 | 74.40671 | 724 ft | 21 kts | 348° |
| 2026-05-08 12:32 | 31.52641 | 74.40674 | 723 ft | 21 kts | 0° |
| 2026-05-08 12:33 | 31.52785 | 74.40660 | 722 ft | 18 kts | 321° |
| 2026-05-08 12:33 | 31.52801 | 74.40562 | 722 ft | 11 kts | 280° |
| 2026-05-08 12:33 | 31.52812 | 74.40484 | 722 ft | 8 kts | 254° |
| 2026-05-08 12:33 | 31.52766 | 74.40467 | 723 ft | 9 kts | 181° |
| 2026-05-08 12:34 | 31.52495 | 74.40464 | 722 ft | 82 kts | 181° |
| 2026-05-08 12:34 | 31.51655 | 74.40450 | 724 ft | 158 kts | 181° |
| 2026-05-08 12:34 | 31.50386 | 74.40413 | 1059 ft | 191 kts | 182° |
| 2026-05-08 12:34 | 31.49036 | 74.40372 | 1800 ft | 206 kts | 180° |
| 2026-05-08 12:35 | 31.47574 | 74.40383 | 2672 ft | 212 kts | 178° |
| 2026-05-08 12:35 | 31.46043 | 74.40169 | 3432 ft | 237 kts | 205° |
| 2026-05-08 12:35 | 31.44757 | 74.38841 | 4150 ft | 263 kts | 242° |
| 2026-05-08 12:35 | 31.44361 | 74.36725 | 5105 ft | 275 kts | 277° |
| 2026-05-08 12:36 | 31.45024 | 74.34624 | 6324 ft | 279 kts | 302° |
| 2026-05-08 12:36 | 31.46061 | 74.32697 | 7599 ft | 281 kts | 303° |
| 2026-05-08 12:36 | 31.47115 | 74.30751 | 8871 ft | 284 kts | 303° |
| 2026-05-08 12:36 | 31.48224 | 74.28834 | 10081 ft | 287 kts | 312° |
| 2026-05-08 12:37 | 31.49785 | 74.27260 | 10697 ft | 309 kts | 324° |
| 2026-05-08 12:37 | 31.51626 | 74.25779 | 10864 ft | 332 kts | 326° |
| 2026-05-08 12:37 | 31.53614 | 74.24245 | 11008 ft | 353 kts | 327° |
| 2026-05-08 12:37 | 31.55713 | 74.22644 | 11390 ft | 364 kts | 327° |
| 2026-05-08 12:38 | 31.57845 | 74.21014 | 12015 ft | 367 kts | 327° |
| 2026-05-08 12:38 | 31.59989 | 74.19361 | 12678 ft | 370 kts | 327° |
| 2026-05-08 12:38 | 31.62134 | 74.17693 | 13334 ft | 371 kts | 326° |
| 2026-05-08 12:38 | 31.64291 | 74.16006 | 13919 ft | 375 kts | 327° |
| 2026-05-08 12:39 | 31.66461 | 74.14304 | 14441 ft | 378 kts | 327° |
| 2026-05-08 12:39 | 31.68666 | 74.12575 | 14972 ft | 381 kts | 327° |
| 2026-05-08 12:39 | 31.70872 | 74.10844 | 15488 ft | 384 kts | 327° |
| 2026-05-08 12:39 | 31.73116 | 74.09080 | 16000 ft | 387 kts | 327° |
| 2026-05-08 12:40 | 31.75331 | 74.07336 | 16488 ft | 390 kts | 327° |
| 2026-05-08 12:40 | 31.77626 | 74.05526 | 16991 ft | 394 kts | 327° |
| 2026-05-08 12:40 | 31.79875 | 74.03752 | 17484 ft | 397 kts | 327° |
| 2026-05-08 12:40 | 31.82179 | 74.01934 | 17975 ft | 400 kts | 327° |
| 2026-05-08 12:41 | 31.84501 | 74.00107 | 18406 ft | 403 kts | 327° |
| 2026-05-08 12:41 | 31.86838 | 73.98268 | 18853 ft | 404 kts | 327° |
| 2026-05-08 12:41 | 31.89189 | 73.96416 | 19268 ft | 407 kts | 327° |
| 2026-05-08 12:41 | 31.90752 | 73.95186 | 19545 ft | 409 kts | 327° |
| 2026-05-08 12:42 | 31.93125 | 73.93318 | 19968 ft | 412 kts | 327° |
| 2026-05-08 12:42 | 31.95519 | 73.91435 | 20404 ft | 414 kts | 327° |
| 2026-05-08 12:42 | 31.97917 | 73.89543 | 20826 ft | 417 kts | 327° |
| 2026-05-08 12:42 | 32.00332 | 73.87632 | 21246 ft | 420 kts | 327° |
| 2026-05-08 12:43 | 32.02768 | 73.85702 | 21656 ft | 422 kts | 327° |
| 2026-05-08 12:43 | 32.05207 | 73.83769 | 21824 ft | 424 kts | 327° |
| 2026-05-08 12:43 | 32.07693 | 73.81798 | 21847 ft | 436 kts | 327° |
| 2026-05-08 12:43 | 32.10241 | 73.79777 | 21848 ft | 446 kts | 327° |
| 2026-05-08 12:44 | 32.12836 | 73.77719 | 21845 ft | 451 kts | 327° |
| 2026-05-08 12:44 | 32.15414 | 73.75672 | 21846 ft | 453 kts | 327° |
| 2026-05-08 12:44 | 32.18035 | 73.73589 | 21846 ft | 453 kts | 327° |
| 2026-05-08 12:44 | 32.20643 | 73.71515 | 21852 ft | 453 kts | 327° |
| 2026-05-08 12:45 | 32.23263 | 73.69429 | 21852 ft | 453 kts | 327° |
| 2026-05-08 12:45 | 32.25880 | 73.67341 | 21851 ft | 453 kts | 327° |
| 2026-05-08 12:45 | 32.28490 | 73.65260 | 21853 ft | 453 kts | 327° |
| 2026-05-08 12:45 | 32.31106 | 73.63176 | 21849 ft | 453 kts | 327° |
| 2026-05-08 12:46 | 32.33716 | 73.61099 | 21851 ft | 453 kts | 327° |
| 2026-05-08 12:46 | 32.36320 | 73.59027 | 21849 ft | 446 kts | 327° |
| 2026-05-08 12:46 | 32.38844 | 73.57027 | 21849 ft | 429 kts | 327° |
| 2026-05-08 12:46 | 32.41280 | 73.55096 | 21851 ft | 425 kts | 327° |
| 2026-05-08 12:47 | 32.43714 | 73.53164 | 21853 ft | 423 kts | 327° |
| 2026-05-08 12:47 | 32.46178 | 73.51210 | 21852 ft | 423 kts | 327° |
| 2026-05-08 12:47 | 32.48622 | 73.49272 | 21854 ft | 423 kts | 327° |
| 2026-05-08 12:47 | 32.51062 | 73.47336 | 21854 ft | 423 kts | 327° |
| 2026-05-08 12:48 | 32.53507 | 73.45397 | 21854 ft | 423 kts | 327° |
| 2026-05-08 12:48 | 32.55952 | 73.43457 | 21854 ft | 423 kts | 327° |
| 2026-05-08 12:48 | 32.58397 | 73.41516 | 21857 ft | 423 kts | 327° |
| 2026-05-08 12:48 | 32.60843 | 73.39572 | 21854 ft | 423 kts | 327° |
| 2026-05-08 12:49 | 32.63287 | 73.37615 | 21861 ft | 430 kts | 327° |
| 2026-05-08 12:49 | 32.65792 | 73.35553 | 21865 ft | 442 kts | 326° |
| 2026-05-08 12:49 | 32.68338 | 73.33437 | 21864 ft | 451 kts | 326° |
| 2026-05-08 12:49 | 32.70918 | 73.31299 | 21860 ft | 453 kts | 326° |
| 2026-05-08 12:50 | 32.73486 | 73.29106 | 21856 ft | 454 kts | 324° |
| 2026-05-08 12:50 | 32.75975 | 73.26805 | 21863 ft | 454 kts | 322° |
| 2026-05-08 12:50 | 32.78428 | 73.24431 | 21866 ft | 454 kts | 322° |
| 2026-05-08 12:50 | 32.80858 | 73.22043 | 21864 ft | 454 kts | 322° |
| 2026-05-08 12:51 | 32.83304 | 73.19660 | 21865 ft | 454 kts | 322° |
| 2026-05-08 12:51 | 32.88169 | 73.15031 | 20668 ft | 447 kts | 323° |
| 2026-05-08 12:51 | 32.90622 | 73.12742 | 19739 ft | 447 kts | 323° |
| 2026-05-08 12:52 | 32.93067 | 73.10467 | 18964 ft | 444 kts | 323° |
| 2026-05-08 12:52 | 32.97852 | 73.06007 | 17467 ft | 435 kts | 323° |
| 2026-05-08 12:52 | 33.00219 | 73.03792 | 16695 ft | 431 kts | 323° |
| 2026-05-08 12:53 | 33.02568 | 73.01583 | 15943 ft | 428 kts | 323° |
| 2026-05-08 12:53 | 33.04889 | 72.99398 | 15244 ft | 424 kts | 323° |
| 2026-05-08 12:53 | 33.07188 | 72.97228 | 14623 ft | 420 kts | 323° |
| 2026-05-08 12:53 | 33.09477 | 72.95066 | 13830 ft | 419 kts | 323° |
| 2026-05-08 12:54 | 33.11759 | 72.92909 | 13162 ft | 414 kts | 323° |
| 2026-05-08 12:54 | 33.13997 | 72.90794 | 12403 ft | 410 kts | 323° |
| 2026-05-08 12:54 | 33.16213 | 72.88699 | 11836 ft | 402 kts | 322° |
| 2026-05-08 12:54 | 33.18390 | 72.86641 | 11347 ft | 393 kts | 322° |
| 2026-05-08 12:55 | 33.20481 | 72.84665 | 11208 ft | 375 kts | 322° |
| 2026-05-08 12:55 | 33.22484 | 72.82771 | 11096 ft | 358 kts | 322° |
| 2026-05-08 12:55 | 33.24390 | 72.80966 | 10972 ft | 343 kts | 322° |
| 2026-05-08 12:55 | 33.26219 | 72.79232 | 10855 ft | 329 kts | 322° |
| 2026-05-08 12:56 | 33.27977 | 72.77565 | 10737 ft | 317 kts | 322° |
| 2026-05-08 12:56 | 33.29660 | 72.75967 | 10628 ft | 305 kts | 322° |
| 2026-05-08 12:56 | 33.31273 | 72.74437 | 10434 ft | 298 kts | 322° |
| 2026-05-08 12:56 | 33.32899 | 72.72895 | 10042 ft | 299 kts | 322° |
| 2026-05-08 12:57 | 33.34532 | 72.71346 | 9575 ft | 300 kts | 322° |
| 2026-05-08 12:57 | 33.36152 | 72.69809 | 9114 ft | 302 kts | 322° |
| 2026-05-08 12:57 | 33.37799 | 72.68246 | 8644 ft | 303 kts | 322° |
| 2026-05-08 12:57 | 33.39436 | 72.66690 | 8179 ft | 303 kts | 322° |
| 2026-05-08 12:58 | 33.41092 | 72.65114 | 7722 ft | 304 kts | 321° |
| 2026-05-08 12:58 | 33.42749 | 72.63534 | 7267 ft | 297 kts | 321° |
| 2026-05-08 12:58 | 33.44318 | 72.62042 | 6828 ft | 287 kts | 321° |
| 2026-05-08 12:58 | 33.45870 | 72.60563 | 6393 ft | 286 kts | 321° |
| 2026-05-08 12:59 | 33.47467 | 72.59145 | 5936 ft | 287 kts | 330° |
| 2026-05-08 12:59 | 33.49336 | 72.58328 | 5470 ft | 288 kts | 350° |
| 2026-05-08 12:59 | 33.51304 | 72.58316 | 5085 ft | 286 kts | 10° |
| 2026-05-08 12:59 | 33.53159 | 72.58954 | 4919 ft | 266 kts | 18° |
| 2026-05-08 13:00 | 33.54891 | 72.59603 | 4557 ft | 255 kts | 17° |
| 2026-05-08 13:00 | 33.56521 | 72.60288 | 4199 ft | 245 kts | 31° |
| 2026-05-08 13:00 | 33.57613 | 72.61728 | 3844 ft | 232 kts | 71° |
| 2026-05-08 13:00 | 33.57739 | 72.63568 | 3715 ft | 214 kts | 98° |
| 2026-05-08 13:01 | 33.57523 | 72.65183 | 3740 ft | 192 kts | 102° |
| 2026-05-08 13:01 | 33.57288 | 72.66680 | 3737 ft | 173 kts | 101° |
| 2026-05-08 13:01 | 33.57072 | 72.68056 | 3662 ft | 162 kts | 101° |
| 2026-05-08 13:01 | 33.56866 | 72.69376 | 3509 ft | 159 kts | 102° |
| 2026-05-08 13:02 | 33.56665 | 72.70672 | 3335 ft | 157 kts | 102° |
| 2026-05-08 13:02 | 33.56466 | 72.71952 | 3152 ft | 156 kts | 102° |
| 2026-05-08 13:02 | 33.56270 | 72.73213 | 2954 ft | 153 kts | 102° |
| 2026-05-08 13:02 | 33.56074 | 72.74472 | 2760 ft | 153 kts | 102° |
| 2026-05-08 13:03 | 33.55878 | 72.75728 | 2575 ft | 153 kts | 102° |
| 2026-05-08 13:03 | 33.55685 | 72.76970 | 2399 ft | 151 kts | 101° |
| 2026-05-08 13:03 | 33.55499 | 72.78161 | 2199 ft | 142 kts | 103° |
| 2026-05-08 13:03 | 33.55322 | 72.79298 | 2031 ft | 136 kts | 103° |
| 2026-05-08 13:04 | 33.55168 | 72.80426 | 1842 ft | 133 kts | 107° |
| 2026-05-08 13:04 | 33.54990 | 72.81506 | 1795 ft | 131 kts | 103° |
| 2026-05-08 13:04 | 33.54805 | 72.82502 | 1746 ft | 118 kts | 103° |
| 2026-05-08 13:04 | 33.54740 | 72.83204 | 1763 ft | 22 kts | 104° |
| 2026-05-08 13:05 | 33.54732 | 72.83232 | 1763 ft | 7 kts | 111° |
| 2026-05-08 13:05 | 33.54705 | 72.83300 | 1767 ft | 9 kts | 114° |
| 2026-05-08 13:05 | 33.54693 | 72.83375 | 1768 ft | 9 kts | 68° |
| 2026-05-08 13:05 | 33.54736 | 72.83431 | 1767 ft | 8 kts | 12° |
| 2026-05-08 13:06 | 33.54784 | 72.83436 | 1768 ft | 6 kts | 4° |
| 2026-05-08 13:06 | 33.54835 | 72.83445 | 1765 ft | 11 kts | 10° |
| 2026-05-08 13:06 | 33.54932 | 72.83467 | 1767 ft | 17 kts | 11° |
| 2026-05-08 13:06 | 33.55047 | 72.83488 | 1769 ft | 14 kts | 354° |
| 2026-05-08 13:07 | 33.55073 | 72.83371 | 1771 ft | 18 kts | 279° |
| 2026-05-08 13:07 | 33.55101 | 72.83196 | 1770 ft | 25 kts | 281° |
| 2026-05-08 13:07 | 33.55134 | 72.82985 | 1768 ft | 25 kts | 281° |
| 2026-05-08 13:07 | 33.55165 | 72.82782 | 1770 ft | 25 kts | 280° |
| 2026-05-08 13:08 | 33.55217 | 72.82605 | 1770 ft | 15 kts | 317° |
| 2026-05-08 13:08 | 33.55262 | 72.82605 | 1769 ft | 7 kts | 3° |
| 2026-05-08 13:08 | 33.55320 | 72.82615 | 1772 ft | 8 kts | 10° |
| 2026-05-08 13:08 | 33.55371 | 72.82627 | 1772 ft | 8 kts | 11° |
| 2026-05-08 13:09 | 33.55428 | 72.82680 | 1773 ft | 14 kts | 55° |
| 2026-05-08 13:09 | 33.55512 | 72.82828 | 1773 ft | 25 kts | 56° |
| 2026-05-08 13:09 | 33.55614 | 72.83004 | 1771 ft | 26 kts | 56° |
| 2026-05-08 13:09 | 33.55657 | 72.83060 | 1771 ft | 1 kts | 20° |
| 2026-05-08 13:10 | 33.55671 | 72.83129 | 1774 ft | 13 kts | 95° |
| 2026-05-08 13:10 | 33.55664 | 72.83189 | 1770 ft | 0 kts | 99° |
| 2026-05-08 13:10 | 33.55664 | 72.83190 | 1770 ft | 0 kts | 100° |
| 2026-05-08 13:11 | 33.55666 | 72.83181 | 1770 ft | 0 kts | 100° |